Anchorage/Elmendorf AFB, Alaska
Current Conditions -  °F | °C
As of 1:58 AM on Friday 24 Oct 2014 (Local Time) from PAED Reporting Station
Clear Clear  
Wind Chill: 28°   Ceiling: Unl
Heat Index: 28°   Visibility: 10mi
Dew Point: 20°   Wind: 0mph
Humidity: 72%   Direction: NA
Pressure: 29.76"   Gusts: NA
Location:  61.25°N, 149.79°W
Report Text: PAED 240958Z AUTO 00000KT 10SM CLR M02/M07 A2976 RMK AO2 SLP075 T10211066 $
Loading
Personal Weather Stations






























Interactive Weather Map New forecast layout! Learn more

10-Day Weather Forecast

Advertisements
Track Severe Weather on mobile